Time;durP1;ratioP1;P1;durP2;ratioP2;P2;SDS_P1;SDS_P2;PMS_P1;PMS_P2;Temp;Humidity;BMP_temperature;BMP_pressure;BME280_temperature;BME280_humidity;BME280_pressure;Samples;Min_cycle;Max_cycle;Signal;HPM_P1;HPM_P2
2023/08/20 00:01:34;;;;;;;9.25;8.45;;;21.60;99.90;;;;;;5049986;28;20396;-76
2023/08/20 00:03:59;;;;;;;9.47;8.47;;;21.60;99.90;;;;;;5038264;28;20395;-76
2023/08/20 00:06:25;;;;;;;8.98;8.27;;;21.60;99.90;;;;;;5030496;28;20453;-76
2023/08/20 00:08:51;;;;;;;9.27;8.52;;;21.60;99.90;;;;;;5030724;28;20391;-76
2023/08/20 00:11:17;;;;;;;8.90;8.10;;;21.50;99.90;;;;;;5035665;28;20467;-76
2023/08/20 00:13:43;;;;;;;8.32;7.63;;;21.40;99.90;;;;;;5050658;28;20382;-75
2023/08/20 00:16:09;;;;;;;9.50;8.70;;;21.40;99.90;;;;;;5050595;28;20954;-76
2023/08/20 00:18:35;;;;;;;9.80;8.90;;;21.40;99.90;;;;;;5050086;28;20915;-76
2023/08/20 00:21:01;;;;;;;9.45;8.55;;;21.40;99.90;;;;;;5048619;28;20389;-75
2023/08/20 00:23:26;;;;;;;9.30;8.50;;;21.40;99.90;;;;;;5030816;28;20382;-75
2023/08/20 00:25:52;;;;;;;8.65;7.93;;;21.30;99.90;;;;;;5041431;28;20973;-76
2023/08/20 00:28:20;;;;;;;11.20;8.23;;;21.30;99.90;;;;;;5050127;28;20374;-76
2023/08/20 00:30:45;;;;;;;8.70;7.80;;;21.20;99.90;;;;;;5050639;28;20388;-76
2023/08/20 00:33:11;;;;;;;9.90;8.80;;;21.20;99.90;;;;;;5053606;28;20373;-76
2023/08/20 00:35:36;;;;;;;8.20;7.50;;;21.10;99.90;;;;;;5047732;28;20761;-76
2023/08/20 00:38:02;;;;;;;8.83;8.03;;;21.60;99.90;;;;;;5050670;28;20381;-77
2023/08/20 00:40:28;;;;;;;8.20;7.45;;;21.20;99.90;;;;;;5052569;28;20408;-75
2023/08/20 00:42:53;;;;;;;8.63;7.90;;;21.20;99.90;;;;;;5044878;28;20481;-76
2023/08/20 00:45:19;;;;;;;8.97;8.17;;;21.30;99.90;;;;;;5030015;28;20425;-76
2023/08/20 00:47:45;;;;;;;9.40;8.50;;;21.20;99.90;;;;;;5030285;28;20390;-76
2023/08/20 00:50:11;;;;;;;9.03;8.23;;;21.20;99.90;;;;;;5029904;28;21001;-76
2023/08/20 00:52:38;;;;;;;8.90;8.00;;;21.20;99.90;;;;;;5030561;28;20423;-77
2023/08/20 00:55:09;;;;;;;8.70;7.80;;;21.20;99.90;;;;;;5028683;28;20476;-75
2023/08/20 00:57:36;;;;;;;8.50;7.80;;;21.10;99.90;;;;;;5031562;28;20913;-75
2023/08/20 01:00:06;;;;;;;8.13;7.35;;;21.20;99.90;;;;;;5029880;28;20398;-76
2023/08/20 01:02:33;;;;;;;8.73;7.93;;;21.20;99.90;;;;;;5038698;28;20395;-77
2023/08/20 01:05:00;;;;;;;9.15;8.35;;;21.10;99.90;;;;;;5049419;28;20473;-75
2023/08/20 01:07:47;;;;;;;9.00;8.20;;;21.00;99.90;;;;;;5049590;28;20381;-76
2023/08/20 01:10:17;;;;;;;8.93;8.23;;;21.00;99.90;;;;;;5048086;28;20414;-75
2023/08/20 01:12:44;;;;;;;8.73;7.82;;;21.00;99.90;;;;;;5045946;28;20816;-76
2023/08/20 01:15:13;;;;;;;9.18;8.20;;;21.00;99.90;;;;;;5049123;28;20423;-76
2023/08/20 01:17:40;;;;;;;8.73;7.80;;;21.00;99.90;;;;;;5049479;28;20405;-76
2023/08/20 01:20:07;;;;;;;8.35;7.57;;;20.90;99.90;;;;;;5047825;28;20390;-76
2023/08/20 01:22:47;;;;;;;9.65;8.40;;;20.90;99.90;;;;;;5009683;28;20403;-75
2023/08/20 01:25:45;;;;;;;8.80;8.07;;;20.80;99.90;;;;;;5044342;28;20394;-75
2023/08/20 01:28:28;;;;;;;9.05;8.15;;;20.90;99.90;;;;;;5049660;28;20382;-75
2023/08/20 01:30:57;;;;;;;8.57;7.78;;;20.70;99.90;;;;;;5048457;28;20396;-76
2023/08/20 01:33:24;;;;;;;9.02;8.23;;;20.60;99.90;;;;;;5047933;28;20373;-75
2023/08/20 01:35:50;;;;;;;9.77;8.77;;;20.70;99.90;;;;;;5028952;28;20426;-76
2023/08/20 01:38:15;;;;;;;9.17;8.27;;;20.80;99.90;;;;;;5030935;28;20457;-80
2023/08/20 01:40:41;;;;;;;11.40;8.40;;;21.20;99.90;;;;;;5029161;28;20380;-77
2023/08/20 01:43:07;;;;;;;8.30;7.60;;;20.80;99.90;;;;;;5045116;28;20399;-77
2023/08/20 01:45:32;;;;;;;9.40;8.50;;;20.90;99.90;;;;;;5030791;28;20379;-79
2023/08/20 01:47:58;;;;;;;8.52;7.82;;;20.90;99.90;;;;;;5029078;28;20424;-76
2023/08/20 01:50:23;;;;;;;8.90;8.00;;;20.80;99.90;;;;;;5029398;28;20387;-79
2023/08/20 01:52:49;;;;;;;9.23;8.13;;;20.80;99.90;;;;;;5046612;28;20396;-77
2023/08/20 01:55:14;;;;;;;9.77;8.30;;;20.80;99.90;;;;;;5049770;28;20389;-77
2023/08/20 01:57:40;;;;;;;8.95;8.25;;;20.80;99.90;;;;;;5050054;28;20454;-77
2023/08/20 02:00:06;;;;;;;9.40;8.50;;;20.70;99.90;;;;;;5048080;28;20412;-77
2023/08/20 02:02:32;;;;;;;8.80;8.00;;;20.70;99.90;;;;;;5050206;28;20448;-77
2023/08/20 02:04:58;;;;;;;8.60;7.90;;;20.50;99.90;;;;;;5048755;28;20442;-77
2023/08/20 02:07:23;;;;;;;10.10;8.50;;;20.50;99.90;;;;;;5049676;28;20385;-77
2023/08/20 02:09:49;;;;;;;9.43;8.50;;;20.50;99.90;;;;;;5039050;28;20485;-77
2023/08/20 02:12:15;;;;;;;9.27;7.77;;;20.40;99.90;;;;;;5029834;28;20464;-76
2023/08/20 02:14:40;;;;;;;9.00;8.10;;;20.40;99.90;;;;;;5048318;28;20396;-77
2023/08/20 02:17:07;;;;;;;9.23;8.40;;;20.40;99.90;;;;;;5049519;28;20409;-77
2023/08/20 02:19:32;;;;;;;9.13;8.32;;;20.40;99.90;;;;;;5049428;28;20385;-77
2023/08/20 02:21:58;;;;;;;8.70;7.80;;;20.50;99.90;;;;;;5048296;28;20443;-77
2023/08/20 02:24:23;;;;;;;9.15;8.10;;;20.40;99.90;;;;;;5034131;28;20474;-77
2023/08/20 02:26:49;;;;;;;9.97;8.73;;;20.30;99.90;;;;;;5030782;28;20430;-77
2023/08/20 02:29:15;;;;;;;9.13;8.13;;;20.20;99.90;;;;;;5030365;28;20905;-77
2023/08/20 02:31:40;;;;;;;10.00;8.75;;;20.40;99.90;;;;;;5031035;28;20394;-77
2023/08/20 02:34:06;;;;;;;9.60;8.70;;;20.40;99.90;;;;;;5049924;28;20920;-77
2023/08/20 02:36:31;;;;;;;9.95;8.88;;;20.20;99.90;;;;;;5054047;28;20415;-77
2023/08/20 02:38:57;;;;;;;8.50;7.80;;;20.10;99.90;;;;;;5056020;28;20384;-76
2023/08/20 02:41:22;;;;;;;9.00;8.30;;;20.20;99.90;;;;;;5062138;28;20377;-77
2023/08/20 02:43:49;;;;;;;9.07;8.17;;;20.20;99.90;;;;;;5041054;28;20492;-77
2023/08/20 02:46:14;;;;;;;9.70;8.70;;;20.10;99.90;;;;;;5033935;28;20764;-76
2023/08/20 02:48:40;;;;;;;9.13;8.32;;;20.10;99.90;;;;;;5032874;28;20406;-77
2023/08/20 02:51:05;;;;;;;8.60;7.80;;;20.10;99.90;;;;;;5034135;28;20393;-77
2023/08/20 02:53:31;;;;;;;8.40;7.70;;;20.20;99.90;;;;;;5034002;28;20395;-77
2023/08/20 02:55:56;;;;;;;8.73;7.93;;;20.20;99.90;;;;;;5033373;28;20889;-77
2023/08/20 02:58:22;;;;;;;8.50;7.67;;;20.20;99.90;;;;;;5036880;28;20497;-77
2023/08/20 03:00:48;;;;;;;8.10;7.30;;;20.30;99.90;;;;;;5041561;28;20390;-77
2023/08/20 03:03:13;;;;;;;8.40;7.60;;;20.30;99.90;;;;;;5033765;28;20774;-77
2023/08/20 03:05:39;;;;;;;9.18;8.05;;;20.40;99.90;;;;;;5033252;28;20383;-77
2023/08/20 03:08:06;;;;;;;9.40;7.63;;;20.50;99.90;;;;;;5033209;28;20383;-77
2023/08/20 03:10:32;;;;;;;10.73;8.00;;;20.50;99.90;;;;;;5048791;28;20408;-76
2023/08/20 03:12:59;;;;;;;8.63;7.40;;;20.40;99.90;;;;;;5060086;28;20389;-77
2023/08/20 03:15:24;;;;;;;8.10;7.40;;;20.20;99.90;;;;;;5046472;28;20748;-78
2023/08/20 03:17:50;;;;;;;8.63;7.82;;;20.30;99.90;;;;;;5049493;28;20420;-78
2023/08/20 03:20:15;;;;;;;8.97;8.17;;;20.30;99.90;;;;;;5049546;28;20405;-77
2023/08/20 03:22:41;;;;;;;9.02;8.20;;;20.30;99.90;;;;;;5053496;28;20852;-77
2023/08/20 03:25:07;;;;;;;8.57;7.87;;;20.20;99.90;;;;;;5053746;28;20380;-77
2023/08/20 03:27:33;;;;;;;8.65;7.75;;;20.20;99.90;;;;;;5053464;28;20388;-77
2023/08/20 03:29:58;;;;;;;8.98;8.07;;;20.10;99.90;;;;;;5039890;28;20403;-77
2023/08/20 03:32:24;;;;;;;8.83;7.63;;;20.10;99.90;;;;;;5044941;28;20408;-77
2023/08/20 03:34:50;;;;;;;8.40;7.50;;;20.10;99.90;;;;;;5053348;28;20804;-77
2023/08/20 03:37:15;;;;;;;8.35;7.50;;;20.10;99.90;;;;;;5052086;28;20488;-77
2023/08/20 03:39:41;;;;;;;9.13;8.23;;;20.10;99.90;;;;;;5051841;28;20821;-77
2023/08/20 03:42:06;;;;;;;9.00;8.15;;;19.40;99.90;;;;;;5045478;28;20399;-77
2023/08/20 03:44:32;;;;;;;8.73;7.90;;;20.00;99.90;;;;;;5033828;28;20477;-77
2023/08/20 03:46:58;;;;;;;9.43;7.72;;;20.10;99.90;;;;;;5032938;28;20492;-77
2023/08/20 03:49:23;;;;;;;8.45;7.57;;;20.10;99.90;;;;;;5032905;28;20395;-77
2023/08/20 03:51:49;;;;;;;8.73;7.83;;;20.10;99.90;;;;;;5033297;28;20383;-77
2023/08/20 03:54:14;;;;;;;8.73;7.40;;;20.20;99.90;;;;;;5032095;28;20420;-77
2023/08/20 03:56:40;;;;;;;7.80;7.10;;;20.30;99.90;;;;;;5051343;28;20461;-77
2023/08/20 03:59:06;;;;;;;8.10;7.35;;;20.30;99.90;;;;;;5052920;28;20403;-77
2023/08/20 04:01:32;;;;;;;8.40;7.60;;;19.80;99.90;;;;;;5053602;28;20936;-77
2023/08/20 04:03:57;;;;;;;8.33;7.60;;;20.30;99.90;;;;;;5052412;28;20370;-77
2023/08/20 04:06:23;;;;;;;8.35;7.55;;;20.30;99.90;;;;;;5033437;28;20394;-77
2023/08/20 04:08:48;;;;;;;8.50;7.70;;;20.40;99.90;;;;;;5031453;28;20402;-77
2023/08/20 04:11:14;;;;;;;8.27;7.50;;;20.20;99.90;;;;;;5051211;28;20480;-77
2023/08/20 04:13:42;;;;;;;7.82;7.07;;;20.40;99.90;;;;;;5052940;28;20389;-77
2023/08/20 04:16:08;;;;;;;7.75;7.05;;;20.40;99.90;;;;;;5032277;28;20414;-77
2023/08/20 04:18:33;;;;;;;8.30;7.60;;;20.50;99.90;;;;;;5032231;28;20763;-77
2023/08/20 04:20:59;;;;;;;7.63;6.93;;;20.70;99.90;;;;;;5047095;28;20413;-77
2023/08/20 04:23:25;;;;;;;7.80;7.03;;;20.70;99.90;;;;;;5053005;28;20906;-77
2023/08/20 04:25:50;;;;;;;8.20;7.38;;;20.80;99.90;;;;;;5053195;28;20477;-77
2023/08/20 04:28:16;;;;;;;7.40;6.70;;;20.80;99.90;;;;;;5052749;28;20385;-77
2023/08/20 04:30:41;;;;;;;8.30;7.50;;;20.70;99.90;;;;;;5041363;28;20387;-77
2023/08/20 04:33:07;;;;;;;8.30;7.60;;;20.70;99.90;;;;;;5031552;28;20405;-77
2023/08/20 04:35:33;;;;;;;8.20;7.40;;;20.60;99.90;;;;;;5032627;28;20485;-77
2023/08/20 04:37:59;;;;;;;8.30;7.60;;;20.60;99.90;;;;;;5036154;28;20959;-77
2023/08/20 04:40:24;;;;;;;7.50;6.80;;;20.50;99.90;;;;;;5029869;28;20391;-78
2023/08/20 04:42:51;;;;;;;7.87;7.27;;;20.50;99.90;;;;;;5029258;28;20954;-77
2023/08/20 04:45:19;;;;;;;8.00;7.15;;;20.70;99.90;;;;;;5011862;28;20396;-77
2023/08/20 04:47:45;;;;;;;8.32;7.68;;;20.70;99.90;;;;;;5034175;28;20425;-77
2023/08/20 04:50:10;;;;;;;8.77;7.40;;;20.60;99.90;;;;;;5051495;28;20433;-77
2023/08/20 04:52:36;;;;;;;8.30;7.10;;;20.70;99.90;;;;;;5052547;28;20393;-78
2023/08/20 04:55:02;;;;;;;8.20;7.50;;;20.70;99.90;;;;;;5052663;28;20389;-77
2023/08/20 04:57:28;;;;;;;8.48;7.65;;;20.60;99.90;;;;;;5040664;28;20419;-77
2023/08/20 04:59:54;;;;;;;7.50;6.90;;;20.60;99.90;;;;;;5032477;28;20447;-78
2023/08/20 05:02:19;;;;;;;8.27;7.57;;;20.60;99.90;;;;;;5032173;28;20406;-78
2023/08/20 05:04:45;;;;;;;8.10;7.40;;;20.60;99.90;;;;;;5032151;28;20462;-77
2023/08/20 05:07:10;;;;;;;8.00;7.30;;;20.70;99.90;;;;;;5032040;28;20401;-77
2023/08/20 05:09:36;;;;;;;8.38;7.40;;;20.70;99.90;;;;;;5031599;28;21125;-77
2023/08/20 05:12:02;;;;;;;8.20;7.40;;;20.70;99.90;;;;;;5032770;28;20390;-77
2023/08/20 05:14:28;;;;;;;8.85;8.05;;;20.60;99.90;;;;;;5037088;28;20407;-76
2023/08/20 05:16:54;;;;;;;8.45;7.65;;;20.70;99.90;;;;;;5054626;28;20414;-76
2023/08/20 05:19:19;;;;;;;8.23;7.50;;;20.60;99.90;;;;;;5058998;28;20388;-76
2023/08/20 05:21:45;;;;;;;8.48;7.13;;;20.60;99.90;;;;;;5059634;28;20431;-76
2023/08/20 05:24:10;;;;;;;8.13;7.33;;;20.70;99.90;;;;;;5058225;28;20385;-76
2023/08/20 05:26:36;;;;;;;8.32;7.65;;;20.70;99.90;;;;;;5055764;28;20428;-76
2023/08/20 05:29:01;;;;;;;8.33;7.63;;;20.70;99.90;;;;;;5057816;28;20443;-76
2023/08/20 05:31:28;;;;;;;8.68;7.78;;;20.60;99.90;;;;;;5053364;28;20395;-76
2023/08/20 05:33:53;;;;;;;7.65;7.05;;;20.60;99.90;;;;;;5044572;28;21058;-76
2023/08/20 05:36:19;;;;;;;9.40;8.27;;;20.50;99.90;;;;;;5057873;28;20416;-77
2023/08/20 05:38:44;;;;;;;8.68;7.88;;;20.50;99.90;;;;;;5049881;28;20437;-76
2023/08/20 05:41:10;;;;;;;9.10;8.10;;;20.50;99.90;;;;;;5037585;28;20380;-76
2023/08/20 05:43:38;;;;;;;8.80;8.00;;;21.20;99.90;;;;;;5038249;28;20399;-77
2023/08/20 05:46:04;;;;;;;8.40;7.70;;;20.50;99.90;;;;;;5034964;28;20381;-77
2023/08/20 05:48:29;;;;;;;8.80;7.90;;;20.50;99.90;;;;;;5038522;28;20460;-76
2023/08/20 05:50:55;;;;;;;8.37;7.57;;;20.50;99.90;;;;;;5012468;28;20381;-77
2023/08/20 05:53:22;;;;;;;8.80;8.10;;;20.50;99.90;;;;;;5012368;28;20411;-77
2023/08/20 05:55:48;;;;;;;8.00;7.30;;;20.60;99.90;;;;;;5011960;28;20381;-77
2023/08/20 05:58:14;;;;;;;9.93;8.13;;;20.60;99.90;;;;;;5022010;28;20393;-76
2023/08/20 06:00:39;;;;;;;9.05;8.25;;;20.70;99.90;;;;;;5050217;28;20822;-77
2023/08/20 06:03:05;;;;;;;9.45;8.63;;;20.70;99.90;;;;;;5051123;28;20378;-77
2023/08/20 06:05:31;;;;;;;8.50;7.80;;;20.70;99.90;;;;;;5034157;28;20399;-77
2023/08/20 06:07:56;;;;;;;8.50;7.80;;;20.70;99.90;;;;;;5031257;28;20387;-77
2023/08/20 06:10:22;;;;;;;9.05;8.15;;;20.80;99.90;;;;;;5034503;28;20758;-77
2023/08/20 06:12:47;;;;;;;10.37;8.30;;;20.80;99.90;;;;;;5034243;28;20398;-77
2023/08/20 06:15:14;;;;;;;8.02;7.32;;;20.90;99.90;;;;;;5047591;28;20408;-77
2023/08/20 06:17:39;;;;;;;8.63;7.82;;;21.00;99.90;;;;;;5038439;28;20449;-76
2023/08/20 06:20:07;;;;;;;9.00;8.20;;;21.00;99.90;;;;;;5034718;28;20415;-76
2023/08/20 06:22:33;;;;;;;9.18;8.40;;;21.00;99.90;;;;;;5034880;28;20379;-77
2023/08/20 06:24:58;;;;;;;10.18;8.10;;;21.10;99.90;;;;;;5034728;28;20478;-77
2023/08/20 06:27:24;;;;;;;10.70;8.20;;;21.10;99.90;;;;;;5047068;28;20393;-77
2023/08/20 06:29:49;;;;;;;8.20;7.60;;;21.20;99.90;;;;;;5040633;28;20406;-77
2023/08/20 06:32:15;;;;;;;9.60;8.80;;;21.40;99.90;;;;;;5034429;28;20418;-77
2023/08/20 06:34:40;;;;;;;9.20;8.30;;;21.40;99.90;;;;;;5035579;28;20490;-76
2023/08/20 06:37:06;;;;;;;8.80;8.00;;;21.50;99.90;;;;;;5036582;28;20509;-76
2023/08/20 06:39:31;;;;;;;8.70;8.00;;;21.60;99.90;;;;;;5044913;28;20538;-77
2023/08/20 06:41:57;;;;;;;9.40;8.50;;;21.70;99.90;;;;;;5057737;28;20408;-76
2023/08/20 06:44:22;;;;;;;9.10;8.20;;;21.70;99.90;;;;;;5048690;28;20750;-76
2023/08/20 06:46:48;;;;;;;9.05;8.25;;;21.80;99.90;;;;;;5056196;28;20399;-78
2023/08/20 06:49:14;;;;;;;8.90;8.10;;;21.20;99.90;;;;;;5054869;28;20848;-78
2023/08/20 06:51:39;;;;;;;8.70;7.50;;;21.90;99.90;;;;;;5055276;28;20745;-78
2023/08/20 06:54:06;;;;;;;9.03;8.13;;;21.80;99.90;;;;;;5038688;28;20902;-78
2023/08/20 06:56:32;;;;;;;8.80;7.93;;;22.00;99.90;;;;;;5033669;28;20434;-78
2023/08/20 06:58:57;;;;;;;9.35;7.88;;;22.10;99.90;;;;;;5047532;28;20393;-78
2023/08/20 07:01:23;;;;;;;8.20;7.40;;;22.30;99.90;;;;;;5055043;28;20389;-78
2023/08/20 07:03:49;;;;;;;9.87;7.60;;;22.30;99.90;;;;;;5054800;28;20389;-78
2023/08/20 07:06:16;;;;;;;9.00;8.10;;;22.40;99.90;;;;;;5053991;28;20393;-78
2023/08/20 07:08:42;;;;;;;7.90;7.30;;;22.40;99.90;;;;;;5043179;28;20456;-78
2023/08/20 07:11:07;;;;;;;8.40;7.50;;;22.50;99.90;;;;;;5034741;28;20926;-78
2023/08/20 07:13:33;;;;;;;9.43;7.68;;;22.60;99.90;;;;;;5033684;28;20390;-78
2023/08/20 07:15:59;;;;;;;8.40;7.53;;;22.70;99.90;;;;;;5034695;28;20382;-78
2023/08/20 07:18:25;;;;;;;7.28;6.63;;;22.80;99.90;;;;;;5051248;28;20915;-77
2023/08/20 07:20:51;;;;;;;8.07;7.37;;;23.00;99.90;;;;;;5053161;28;20464;-77
2023/08/20 07:23:17;;;;;;;7.35;6.80;;;23.20;99.90;;;;;;5055268;28;20722;-77
2023/08/20 07:25:44;;;;;;;8.73;7.00;;;23.10;99.90;;;;;;5054707;28;20392;-77
2023/08/20 07:28:10;;;;;;;7.70;7.00;;;23.20;99.90;;;;;;5037289;28;20421;-77
2023/08/20 07:30:36;;;;;;;7.80;7.10;;;23.30;99.90;;;;;;5034362;28;20395;-77
2023/08/20 07:33:02;;;;;;;7.60;6.90;;;23.30;99.90;;;;;;5046634;28;20394;-77
2023/08/20 07:35:28;;;;;;;7.95;7.15;;;23.40;99.90;;;;;;5053956;28;20424;-77
2023/08/20 07:37:54;;;;;;;7.70;6.87;;;23.60;99.90;;;;;;5053977;28;20401;-78
2023/08/20 07:40:20;;;;;;;7.90;7.30;;;23.70;99.90;;;;;;5053413;28;20438;-77
2023/08/20 07:42:45;;;;;;;8.00;7.20;;;23.90;99.90;;;;;;5043784;28;20760;-77
2023/08/20 07:45:11;;;;;;;8.35;7.65;;;23.90;99.90;;;;;;5034513;28;20402;-77
2023/08/20 07:47:37;;;;;;;9.23;7.93;;;24.10;99.90;;;;;;5034218;28;20394;-77
2023/08/20 07:50:06;;;;;;;9.55;8.52;;;24.60;99.90;;;;;;5033413;28;20740;-77
2023/08/20 07:52:32;;;;;;;9.50;8.50;;;24.80;99.90;;;;;;5043479;28;20397;-77
2023/08/20 07:54:58;;;;;;;8.98;8.15;;;24.90;99.90;;;;;;5054368;28;20908;-77
2023/08/20 07:57:23;;;;;;;9.30;8.50;;;24.90;99.90;;;;;;5053431;28;20417;-77
2023/08/20 07:59:50;;;;;;;8.80;8.00;;;25.10;99.90;;;;;;5031814;28;20422;-77
2023/08/20 08:02:15;;;;;;;8.90;8.10;;;25.10;99.90;;;;;;5034045;28;20906;-77
2023/08/20 08:04:42;;;;;;;9.48;7.85;;;25.10;99.90;;;;;;5033072;28;20402;-77
2023/08/20 08:07:08;;;;;;;9.25;8.38;;;25.30;99.90;;;;;;5033093;28;20395;-77
2023/08/20 08:09:33;;;;;;;8.77;7.97;;;25.30;99.90;;;;;;5049734;28;20428;-78
2023/08/20 08:11:59;;;;;;;8.67;7.70;;;25.40;99.90;;;;;;5034691;28;20402;-78
2023/08/20 08:14:25;;;;;;;8.50;7.70;;;25.50;99.90;;;;;;5032175;28;20387;-78
2023/08/20 08:16:51;;;;;;;8.77;8.00;;;25.40;99.90;;;;;;5047591;28;20824;-78
2023/08/20 08:19:18;;;;;;;9.20;8.30;;;25.50;99.90;;;;;;5053071;28;20386;-78
2023/08/20 08:21:44;;;;;;;10.68;7.72;;;25.50;99.90;;;;;;5053704;28;20377;-78
2023/08/20 08:24:10;;;;;;;8.77;7.85;;;25.40;99.90;;;;;;5053668;28;20800;-78
2023/08/20 08:26:36;;;;;;;9.15;8.15;;;25.40;99.90;;;;;;5043414;28;20498;-77
2023/08/20 08:29:06;;;;;;;8.30;7.60;;;25.50;99.90;;;;;;5039350;28;20407;-77
2023/08/20 08:31:32;;;;;;;8.40;7.70;;;25.60;99.90;;;;;;5035584;28;20387;-78
2023/08/20 08:33:58;;;;;;;8.50;7.70;;;25.50;99.90;;;;;;5038206;28;20429;-78
2023/08/20 08:36:27;;;;;;;10.80;8.00;;;25.60;99.90;;;;;;5053204;28;20441;-77
2023/08/20 08:38:53;;;;;;;8.50;7.70;;;25.60;99.90;;;;;;5042174;28;20488;-77
2023/08/20 08:41:22;;;;;;;8.02;7.32;;;25.70;99.90;;;;;;5033360;28;20427;-77
2023/08/20 08:43:49;;;;;;;8.85;8.05;;;25.80;99.90;;;;;;5031784;28;20422;-78
2023/08/20 08:46:15;;;;;;;8.40;7.70;;;25.80;99.90;;;;;;5031780;28;20387;-77
2023/08/20 08:48:42;;;;;;;8.93;8.10;;;26.00;99.90;;;;;;5033286;28;20423;-78
2023/08/20 08:51:08;;;;;;;8.80;7.90;;;25.90;99.90;;;;;;5035661;28;20399;-77
2023/08/20 08:53:34;;;;;;;8.70;8.00;;;25.90;99.90;;;;;;5053274;28;20931;-78
2023/08/20 08:56:00;;;;;;;9.02;8.23;;;25.90;99.90;;;;;;5052677;28;20377;-78
2023/08/20 08:58:26;;;;;;;8.60;7.80;;;26.20;99.90;;;;;;5052426;28;20470;-78
2023/08/20 09:00:52;;;;;;;9.55;8.65;;;26.10;99.90;;;;;;5052714;28;20454;-77
2023/08/20 09:03:18;;;;;;;9.67;8.77;;;26.10;99.90;;;;;;5050918;28;20413;-77
2023/08/20 09:05:54;;;;;;;9.63;8.43;;;26.30;99.90;;;;;;5052369;28;20443;-78
2023/08/20 09:08:27;;;;;;;8.57;7.80;;;26.40;99.90;;;;;;5058397;28;20872;-77
2023/08/20 09:10:54;;;;;;;8.40;7.70;;;26.60;99.90;;;;;;5055200;28;20382;-78
2023/08/20 09:13:33;;;;;;;8.95;8.07;;;26.30;99.90;;;;;;5035377;28;20399;-78
2023/08/20 09:15:59;;;;;;;9.25;8.25;;;26.60;99.90;;;;;;5032748;28;20387;-77
2023/08/20 09:18:25;;;;;;;8.30;7.50;;;26.90;99.90;;;;;;5032908;28;20401;-77
2023/08/20 09:20:50;;;;;;;10.73;8.23;;;26.70;99.90;;;;;;5033986;28;21069;-78
2023/08/20 09:23:16;;;;;;;9.23;8.43;;;26.70;99.90;;;;;;5051767;28;20382;-78
2023/08/20 09:25:43;;;;;;;8.50;7.78;;;26.80;99.90;;;;;;5052516;28;20407;-78
2023/08/20 09:28:09;;;;;;;8.43;7.72;;;27.70;99.90;;;;;;5052307;28;20387;-78
2023/08/20 09:30:34;;;;;;;11.05;8.52;;;27.00;99.90;;;;;;5050954;28;20888;-78
2023/08/20 09:33:14;;;;;;;9.00;8.20;;;27.00;99.90;;;;;;5043749;28;20397;-78
2023/08/20 09:35:49;;;;;;;9.23;7.47;;;27.30;99.90;;;;;;5051827;28;20431;-78
2023/08/20 09:38:14;;;;;;;9.17;8.37;;;27.10;99.90;;;;;;5051794;28;20908;-78
2023/08/20 09:40:40;;;;;;;8.13;7.35;;;27.10;99.90;;;;;;5049081;28;20388;-78
2023/08/20 09:43:08;;;;;;;9.60;8.80;;;27.10;99.90;;;;;;5031731;28;20388;-78
2023/08/20 09:45:36;;;;;;;8.53;7.77;;;27.20;99.90;;;;;;5031516;28;20379;-78
2023/08/20 09:48:06;;;;;;;8.45;7.78;;;27.40;99.90;;;;;;5032081;28;20505;-78
2023/08/20 09:50:38;;;;;;;8.88;8.07;;;27.40;99.90;;;;;;5031551;28;20603;-78
2023/08/20 09:53:12;;;;;;;9.23;8.30;;;27.50;99.90;;;;;;5032042;28;20410;-78
2023/08/20 09:55:41;;;;;;;9.80;8.90;;;27.60;99.90;;;;;;5031694;28;20379;-78
2023/08/20 09:58:07;;;;;;;9.20;8.30;;;27.60;99.90;;;;;;5039738;28;20772;-78
2023/08/20 10:00:33;;;;;;;8.93;8.23;;;27.70;99.90;;;;;;5051072;28;20390;-78
2023/08/20 10:02:59;;;;;;;9.40;8.50;;;27.70;99.90;;;;;;5051799;28;20392;-78
2023/08/20 10:05:25;;;;;;;8.30;7.70;;;27.70;99.90;;;;;;5051558;28;20381;-78
2023/08/20 10:07:51;;;;;;;8.90;8.00;;;27.50;99.90;;;;;;5042810;28;20395;-78
2023/08/20 10:10:18;;;;;;;8.27;7.57;;;27.70;99.90;;;;;;5030198;28;20402;-78
2023/08/20 10:12:45;;;;;;;9.10;8.40;;;27.60;99.90;;;;;;5031446;28;20490;-78
2023/08/20 10:15:12;;;;;;;9.00;8.10;;;27.80;99.90;;;;;;5032019;28;20394;-78
2023/08/20 10:17:40;;;;;;;9.45;8.55;;;27.90;99.90;;;;;;5035619;28;20409;-78
2023/08/20 10:20:07;;;;;;;8.68;7.88;;;28.10;99.90;;;;;;5051005;28;20793;-78
2023/08/20 10:22:40;;;;;;;8.73;8.02;;;28.30;99.90;;;;;;5051144;28;20891;-78
2023/08/20 10:25:10;;;;;;;8.93;7.40;;;28.20;99.90;;;;;;5050973;28;20678;-78
2023/08/20 10:27:42;;;;;;;8.13;7.60;;;28.30;99.90;;;;;;5047757;28;20449;-78
2023/08/20 10:30:16;;;;;;;8.52;7.63;;;28.50;99.90;;;;;;5030831;28;20390;-79
2023/08/20 10:32:52;;;;;;;9.20;8.30;;;28.80;99.90;;;;;;5030135;28;20405;-78
2023/08/20 10:35:27;;;;;;;8.10;7.40;;;28.90;99.90;;;;;;5031226;28;20403;-79
2023/08/20 10:38:03;;;;;;;8.73;7.93;;;28.80;99.90;;;;;;5035962;28;20413;-79
2023/08/20 10:40:47;;;;;;;9.80;7.50;;;28.90;99.90;;;;;;5036020;28;20927;-79
2023/08/20 10:43:34;;;;;;;8.60;7.80;;;28.70;99.90;;;;;;5031973;28;20391;-79
2023/08/20 10:46:15;;;;;;;7.40;6.70;;;28.90;99.90;;;;;;5030943;28;20744;-78
2023/08/20 10:48:41;;;;;;;7.80;7.10;;;29.00;99.90;;;;;;5029860;28;20383;-79
2023/08/20 10:51:18;;;;;;;7.20;6.60;;;29.40;99.90;;;;;;5039195;28;20477;-78
2023/08/20 10:54:04;;;;;;;7.45;6.70;;;29.20;99.90;;;;;;5049579;28;20903;-78
2023/08/20 10:56:46;;;;;;;7.55;7.05;;;29.10;99.90;;;;;;5033986;28;20452;-79
2023/08/20 10:59:31;;;;;;;7.82;7.05;;;29.30;99.90;;;;;;5034520;28;20391;-78
2023/08/20 11:01:58;;;;;;;6.72;6.22;;;29.30;99.90;;;;;;5034686;28;20394;-78
2023/08/20 11:04:27;;;;;;;8.55;6.93;;;29.60;99.90;;;;;;5034678;28;20387;-78
2023/08/20 11:06:55;;;;;;;6.72;6.20;;;29.60;99.90;;;;;;5049377;28;20406;-78
2023/08/20 11:09:22;;;;;;;7.13;6.43;;;29.60;99.90;;;;;;5034609;28;20379;-78
2023/08/20 11:11:48;;;;;;;7.50;6.80;;;29.70;99.90;;;;;;5041904;28;20848;-78
2023/08/20 11:14:14;;;;;;;7.43;6.80;;;29.80;99.90;;;;;;5054450;28;20465;-78
2023/08/20 11:16:42;;;;;;;7.55;6.75;;;29.60;99.90;;;;;;5045836;28;20399;-78
2023/08/20 11:19:08;;;;;;;7.37;6.77;;;29.50;99.90;;;;;;5031097;28;20387;-77
2023/08/20 11:21:35;;;;;;;13.70;7.32;;;29.60;99.90;;;;;;5036201;28;20459;-77
2023/08/20 11:24:02;;;;;;;7.82;7.03;;;29.50;99.90;;;;;;5054452;28;20416;-78
2023/08/20 11:26:27;;;;;;;7.68;6.97;;;30.00;99.90;;;;;;5059538;28;20385;-77
2023/08/20 11:28:53;;;;;;;7.53;6.80;;;30.20;99.90;;;;;;5050124;28;20402;-77
2023/08/20 11:31:19;;;;;;;7.27;6.57;;;30.50;99.90;;;;;;5033392;28;20898;-78
2023/08/20 11:33:45;;;;;;;7.43;6.82;;;30.60;99.90;;;;;;5032589;28;20387;-77
2023/08/20 11:36:11;;;;;;;6.80;6.30;;;30.50;99.90;;;;;;5032602;28;20399;-78
2023/08/20 11:38:37;;;;;;;6.47;5.97;;;30.90;99.90;;;;;;5032656;28;20390;-78
2023/08/20 11:41:02;;;;;;;7.70;6.17;;;31.20;99.90;;;;;;5051821;28;20896;-77
2023/08/20 11:43:28;;;;;;;7.00;6.00;;;32.10;99.90;;;;;;5045108;28;20754;-77
2023/08/20 11:45:54;;;;;;;6.90;6.10;;;32.70;99.90;;;;;;5034222;28;20391;-77
2023/08/20 11:48:21;;;;;;;6.97;6.27;;;33.00;99.90;;;;;;5036590;28;20414;-77
2023/08/20 11:50:47;;;;;;;6.68;6.13;;;33.30;99.90;;;;;;5032451;28;20387;-77
2023/08/20 11:53:13;;;;;;;6.60;6.10;;;33.20;99.90;;;;;;5032728;28;20399;-78
2023/08/20 11:55:40;;;;;;;7.05;6.40;;;33.70;99.90;;;;;;5031880;28;20871;-78
2023/08/20 11:58:09;;;;;;;7.40;6.80;;;33.10;99.90;;;;;;5034393;28;20471;-78
2023/08/20 12:00:35;;;;;;;6.75;6.25;;;32.90;99.90;;;;;;5052564;28;20397;-78
2023/08/20 12:03:01;;;;;;;8.87;6.80;;;32.70;99.90;;;;;;5051279;28;20935;-77
2023/08/20 12:05:30;;;;;;;7.63;6.93;;;33.20;99.90;;;;;;5051795;28;20378;-78
2023/08/20 12:07:57;;;;;;;7.80;7.00;;;33.30;99.90;;;;;;5038387;28;20438;-78
2023/08/20 12:10:23;;;;;;;7.65;6.88;;;33.20;99.90;;;;;;5030755;28;20402;-78
2023/08/20 12:12:50;;;;;;;6.90;6.30;;;33.40;99.90;;;;;;5032175;28;20874;-78
2023/08/20 12:15:15;;;;;;;7.87;7.17;;;33.20;99.90;;;;;;5031195;28;20394;-78
2023/08/20 12:17:41;;;;;;;7.43;6.82;;;33.00;99.90;;;;;;5041059;28;20401;-78
2023/08/20 12:20:13;;;;;;;7.80;7.20;;;32.90;99.90;;;;;;5042668;28;20399;-78
2023/08/20 12:22:39;;;;;;;7.78;7.07;;;33.20;99.90;;;;;;5031662;28;20406;-77
2023/08/20 12:25:06;;;;;;;7.80;7.20;;;32.90;99.90;;;;;;5031463;28;20440;-78
2023/08/20 12:27:32;;;;;;;8.77;7.50;;;32.90;99.90;;;;;;5031846;28;20953;-78
2023/08/20 12:29:57;;;;;;;7.80;7.10;;;33.00;99.90;;;;;;5034692;28;20480;-77
2023/08/20 12:32:23;;;;;;;8.27;7.57;;;32.70;99.90;;;;;;5051221;28;20445;-78
2023/08/20 12:34:48;;;;;;;8.53;7.73;;;32.20;99.90;;;;;;5051786;28;20472;-78
2023/08/20 12:37:14;;;;;;;8.37;7.67;;;32.40;99.90;;;;;;5050534;28;20931;-78
2023/08/20 12:39:39;;;;;;;8.60;7.90;;;32.10;99.90;;;;;;5039320;28;20395;-78
2023/08/20 12:42:05;;;;;;;8.90;8.00;;;32.20;99.90;;;;;;5030899;28;20389;-77
2023/08/20 12:44:31;;;;;;;8.48;7.68;;;32.00;99.90;;;;;;5029712;28;20505;-77